Aviation Digital Data Service (ADDS)

Output produced by METARs form (2154 UTC 19 February 2018)
found at http://www.aviationweather.gov/adds/metars/
 
FMMI 192130Z VRB03KT 9999 FEW010 BKN020 18/17 Q1018 NOSIG
TAF FMMI 191700Z 1918/2024 12008KT 9999 SCT017CB SCT020 
     PROB40 
     TEMPO 1918/1923 4000 TSRA 
     PROB30 2000/2005 2000 BR 
     PROB30 
     TEMPO 2015/2022 4500 TSRA
       
TAF FMNA 191700Z 1918/2018 14008KT 9999 SCT020CB SCT040 
     PROB30 
     TEMPO 1918/2006 4500 TSRA
       
FMNM 192100Z 14002KT 9999 FEW020CB SCT040 27/26 Q1009
TAF FMNM 191700Z 1918/2018 34008KT 9999 SCT020CB SCT040 
     PROB40 
     TEMPO 1918/2006 4000 TSRA 
     PROB40 
     TEMPO 2010/2018 4000 TSRA
       
TAF FMNN 191700Z 1918/2018 20007KT 9999 SCT020CB BKN040 
     PROB40 
     TEMPO 1918/2018 4000 TSRA
       
TAF FMMS 191700Z 1918/2018 20008KT 9999 FEW007 SCT017CB BKN033 
     TEMPO 1918/2018 3000 TSRA
       
FMMT 192100Z 28006KT 6000 -RA FEW007 SCT017CB BKN033 24/23 Q1013
TAF FMMT 191700Z 1918/2018 24006KT 9999 FEW007 SCT017CB BKN033 
     TEMPO 1918/2018 3000 TSRA 
     BECMG 2005/2008 16010KT
       
FMSD 192100Z 08008KT 9999 SCT016 SCT033 26/24 Q1014
TAF FMSD 191700Z 1918/2018 08010G20KT 9999 FEW017 SCT033
       
TAF FMST 191700Z 1918/2018 14006KT 9999 SCT020 
     BECMG 2005/2008 24012KT